Latest Weather Observations for Birdsville

IDQ60801

Issued at 3:35 pm EST Thursday 23 October 2014 (issued every 30 minutes, with the page automatically refreshed every 10 minutes)

About weather observations | Map of weather stations | Latest weather observations for QLD | Other Formats
Station Details ID: 038026 Name: BIRDSVILLE AIRPORT Lat: -25.90 Lon: 139.35 Height: 46.6 m
Data from the previous 72 hours. | See also: Recent months at Birdsville
Date/Time
EST
Temp
°C
App
Temp
°C
Dew
Point
Rel
Hum
%
Delta-T
°C
Wind Press
QNH
hPa
Press
MSL
hPa
Rain
since 9 am
mm
Dir
 
Spd
km/h
Gust
km/h
Spd
kts
Gust
kts
23/03:30pm 38.7 34.3 0.2 9 19.6 NNE 13 19 7 10 1012.5 - 0.0
23/03:00pm 38.4 31.9 0.0 9 19.4 NNE 24 26 13 14 1012.5 1012.4 0.0
23/02:30pm 38.4 33.9 0.0 9 19.4 NNW 13 24 7 13 1013.0 - 0.0
23/02:00pm 38.9 32.8 0.3 9 19.6 NE 22 30 12 16 1013.3 - 0.0
23/01:30pm 38.3 33.5 -0.1 9 19.4 N 15 30 8 16 1013.8 - 0.0
23/01:00pm 37.7 33.2 -0.6 9 19.1 NE 13 28 7 15 1014.3 - 0.0
23/12:30pm 37.7 32.6 0.9 10 18.8 NNW 17 26 9 14 1015.0 - 0.0
23/12:00pm 37.4 31.0 0.7 10 18.6 N 24 32 13 17 1015.3 1015.2 0.0
23/11:30am 36.7 30.6 0.1 10 18.3 N 22 32 12 17 1015.9 - 0.0
23/11:00am 36.3 29.3 -0.2 10 18.1 N 26 37 14 20 1016.2 - 0.0
23/10:30am 35.7 28.1 0.7 11 17.6 N 30 39 16 21 1016.6 - 0.0
23/10:00am 34.5 27.3 1.0 12 16.8 N 28 37 15 20 1016.8 - 0.0
23/09:30am 33.1 25.7 2.0 14 15.7 N 30 37 16 20 1017.0 - 0.0
23/09:00am 32.1 24.4 2.2 15 15.0 N 32 35 17 19 1017.2 1017.0 0.0
23/08:30am 30.9 23.8 3.8 18 13.9 N 30 35 16 19 1017.1 - 0.0
23/08:00am 29.2 24.2 4.6 21 12.7 N 20 24 11 13 1017.1 - 0.0
23/07:30am 27.0 22.0 4.7 24 11.4 NNE 20 24 11 13 1016.8 - 0.0
23/07:00am 24.2 20.5 4.6 28 9.8 NE 13 15 7 8 1016.7 - 0.0
23/06:30am 23.6 19.2 4.5 29 9.5 N 17 20 9 11 1016.2 - 0.0
23/06:00am 23.3 18.8 4.3 29 9.4 N 17 20 9 11 1015.9 1015.8 0.0
23/05:30am 23.3 18.6 3.3 27 9.7 NNE 17 19 9 10 1015.7 - 0.0
23/05:00am 22.8 18.8 2.8 27 9.5 NNE 13 15 7 8 1015.6 - 0.0
23/04:30am 23.8 19.2 3.7 27 9.8 NNE 17 20 9 11 1015.4 - 0.0
23/04:00am 23.4 19.0 2.8 26 9.9 NNE 15 17 8 9 1015.3 - 0.0
23/03:30am 23.9 19.1 2.7 25 10.2 NNE 17 17 9 9 1015.6 - 0.0
23/03:00am 24.7 19.6 2.8 24 10.6 NNE 19 20 10 11 1015.6 1015.5 0.0
23/02:30am 24.8 19.1 -0.4 19 11.5 NE 19 20 10 11 1015.8 - 0.0
23/02:00am 25.8 19.1 -1.1 17 12.2 NE 24 30 13 16 1015.8 - 0.0
23/01:30am 26.2 20.6 0.0 18 12.2 NE 19 22 10 12 1015.8 - 0.0
23/01:00am 25.6 21.5 -0.5 18 12.0 NNE 11 13 6 7 1016.1 - 0.0
23/12:30am 25.4 21.2 -0.6 18 11.9 NE 11 11 6 6 1016.5 - 0.0
23/12:00am 26.4 21.4 -1.4 16 12.6 NNE 15 20 8 11 1016.8 1016.6 0.0
 
Date/Time
EST
Temp
°C
App
Temp
°C
Dew
Point
Rel
Hum
%
Delta-T
°C
Wind Press
QNH
hPa
Press
MSL
hPa
Rain
since 9 am
mm
Dir
 
Spd
km/h
Gust
km/h
Spd
kts
Gust
kts
22/11:30pm 26.7 23.2 -1.2 16 12.7 N 7 7 4 4 1016.7 - 0.0
22/11:00pm 27.9 24.4 -1.1 15 13.4 N 7 9 4 5 1016.8 - 0.0
22/10:30pm 28.0 24.0 -2.0 14 13.6 N 9 11 5 6 1016.8 - 0.0
22/10:00pm 28.1 24.7 -0.9 15 13.5 N 7 9 4 5 1016.7 - 0.0
22/09:30pm 29.0 25.5 -1.2 14 14.0 N 7 9 4 5 1016.6 - 0.0
22/09:00pm 29.6 25.7 -1.7 13 14.5 NNE 9 9 5 5 1016.5 1016.4 0.0
22/08:30pm 31.2 27.4 -0.5 13 15.2 NNE 9 13 5 7 1016.1 - 0.0
22/08:00pm 32.1 28.7 -0.9 12 15.8 NNE 7 9 4 5 1015.8 - 0.0
22/07:30pm 33.3 29.2 0.1 12 16.3 NNE 11 13 6 7 1015.6 - 0.0
22/07:00pm 34.6 31.1 1.1 12 16.8 NE 9 9 5 5 1015.3 - 0.0
22/06:30pm 36.2 31.9 1.1 11 17.8 NE 13 17 7 9 1015.0 - 0.0
22/06:00pm 36.6 32.0 1.4 11 18.0 NE 15 20 8 11 1014.9 1014.8 0.0
22/05:30pm 37.0 31.8 0.4 10 18.4 NNE 17 24 9 13 1014.7 - 0.0
22/05:00pm 37.2 30.7 0.5 10 18.6 NNE 24 37 13 20 1014.7 - 0.0
22/04:30pm 37.3 31.8 0.6 10 18.6 NE 19 26 10 14 1014.7 - 0.0
22/04:00pm 37.6 33.6 0.8 10 18.7 NE 11 19 6 10 1014.8 - 0.0
22/03:30pm 37.8 31.4 1.0 10 18.8 NNE 24 33 13 18 1015.0 - 0.0
22/03:00pm 37.7 31.3 0.9 10 18.8 N 24 32 13 17 1015.2 1015.1 0.0
22/02:30pm 37.2 31.7 1.8 11 18.3 N 20 35 11 19 1015.7 - 0.0
22/02:00pm 37.5 32.6 2.1 11 18.4 NE 17 20 9 11 1016.1 - 0.0
22/01:30pm 37.4 30.8 2.0 11 18.3 N 26 37 14 20 1016.6 - 0.0
22/01:00pm 36.7 30.0 1.5 11 18.0 N 26 41 14 22 1017.1 - 0.0
22/12:30pm 37.0 31.1 1.7 11 18.2 NNE 22 35 12 19 1017.5 - 0.0
22/12:00pm 36.4 30.2 2.4 12 17.6 N 24 35 13 19 1017.8 1017.6 0.0
22/11:30am 37.1 30.5 4.1 13 17.6 N 28 35 15 19 1018.2 - 0.0
22/11:00am 36.3 28.8 3.5 13 17.3 N 32 41 17 22 1018.5 - 0.0
22/10:30am 34.9 26.5 3.5 14 16.4 N 37 43 20 23 1018.8 - 0.0
22/10:00am 33.9 25.1 3.6 15 15.8 N 39 48 21 26 1019.0 - 0.0
22/09:30am 32.7 24.3 3.6 16 15.1 N 37 44 20 24 1019.0 - 0.0
22/09:00am 32.0 23.3 3.9 17 14.5 N 39 48 21 26 1019.0 1018.8 0.0
22/08:30am 30.4 22.7 3.4 18 13.7 N 33 43 18 23 1019.0 - 0.0
22/08:00am 28.8 23.1 2.9 19 12.9 N 22 30 12 16 1018.7 - 0.0
22/07:30am 25.6 21.4 1.7 21 11.4 NNE 13 17 7 9 1018.4 - 0.0
22/07:00am 23.4 19.9 1.1 23 10.4 NE 9 11 5 6 1018.0 - 0.0
22/06:30am 22.2 18.1 0.1 23 10.0 N 11 17 6 9 1017.4 - 0.0
22/06:00am 21.7 17.7 0.3 24 9.6 NNE 11 17 6 9 1016.8 1016.8 0.0
22/05:30am 22.5 17.8 0.9 24 9.9 NE 15 20 8 11 1016.5 - 0.0
22/05:00am 22.2 18.6 0.7 24 9.8 NNE 9 11 5 6 1016.0 - 0.0
22/04:30am 22.9 19.0 1.3 24 10.0 NNE 11 11 6 6 1016.0 - 0.0
22/04:00am 24.0 19.7 1.0 22 10.7 N 13 15 7 8 1015.9 - 0.0
22/03:30am 22.9 18.7 -0.6 21 10.5 N 11 15 6 8 1015.8 - 0.0
22/03:00am 23.6 19.1 0.0 21 10.7 NNE 13 15 7 8 1015.9 1015.8 0.0
22/02:30am 23.4 19.1 -1.5 19 11.0 NE 11 13 6 7 1016.2 - 0.0
22/02:00am 23.6 19.6 -2.1 18 11.3 NE 9 11 5 6 1016.5 - 0.0
22/01:30am 24.4 20.5 -1.4 18 11.5 NE 9 11 5 6 1016.7 - 0.0
22/01:00am 26.0 22.0 0.6 19 11.9 ENE 11 15 6 8 1017.0 - 0.0
22/12:30am 25.8 21.6 -1.1 17 12.2 N 11 13 6 7 1017.3 - 0.0
22/12:00am 26.7 22.3 -2.1 15 12.9 N 11 15 6 8 1017.5 1017.3 0.0
 
Date/Time
EST
Temp
°C
App
Temp
°C
Dew
Point
Rel
Hum
%
Delta-T
°C
Wind Press
QNH
hPa
Press
MSL
hPa
Rain
since 9 am
mm
Dir
 
Spd
km/h
Gust
km/h
Spd
kts
Gust
kts
21/11:30pm 26.6 22.2 -2.1 15 12.9 NNE 11 13 6 7 1017.7 - 0.0
21/11:00pm 26.8 22.7 -2.9 14 13.2 N 9 13 5 7 1018.0 - 0.0
21/10:30pm 27.4 23.4 -2.4 14 13.4 N 9 11 5 6 1018.3 - 0.0
21/10:00pm 27.9 23.9 -2.0 14 13.6 N 9 11 5 6 1018.2 - 0.0
21/09:30pm 29.5 26.1 -0.8 14 14.2 N 7 15 4 8 1017.9 - 0.0
21/09:00pm 29.8 26.6 -0.5 14 14.3 NNE 6 7 3 4 1017.6 1017.4 0.0
21/08:30pm 30.7 27.3 -0.8 13 14.9 NNE 7 9 4 5 1017.4 - 0.0
21/08:00pm 31.7 27.6 -0.1 13 15.4 NE 11 13 6 7 1017.1 - 0.0
21/07:30pm 32.8 28.7 -0.3 12 16.1 NE 11 15 6 8 1016.7 - 0.0
21/07:00pm 34.3 30.2 -0.4 11 17.0 NE 11 15 6 8 1016.3 - 0.0
21/06:30pm 35.9 31.2 0.9 11 17.7 NE 15 20 8 11 1015.8 - 0.0
21/06:00pm 36.5 31.1 1.3 11 17.9 NE 19 24 10 13 1015.6 1015.5 0.0
21/05:30pm 37.2 31.9 1.8 11 18.3 NE 19 30 10 16 1015.3 - 0.0
21/05:00pm 36.8 31.2 1.5 11 18.1 N 20 30 11 16 1015.3 - 0.0
21/04:30pm 37.6 31.4 2.1 11 18.4 ENE 24 35 13 19 1015.2 - 0.0
21/04:00pm 36.9 31.4 1.6 11 18.1 NNE 20 30 11 16 1015.3 - 0.0
21/03:30pm 37.7 32.8 2.2 11 18.5 NNE 17 30 9 16 1015.3 - 0.0
21/03:00pm 38.3 34.3 2.7 11 18.7 NNE 13 30 7 16 1015.7 1015.6 0.0
21/02:30pm 38.5 32.4 2.8 11 18.8 N 24 32 13 17 1016.0 - 0.0
21/02:00pm 37.1 31.8 1.8 11 18.2 NE 19 32 10 17 1016.5 - 0.0
21/01:30pm 37.7 32.1 3.4 12 18.2 NE 22 39 12 21 1017.0 - 0.0
21/01:00pm 36.5 30.7 2.5 12 17.7 NNE 22 35 12 19 1017.6 - 0.0
21/12:30pm 37.0 31.3 2.9 12 17.9 NE 22 39 12 21 1018.2 - 0.0
21/12:00pm 36.6 29.7 2.6 12 17.7 N 28 35 15 19 1018.6 1018.4 0.0
21/11:30am 36.5 31.5 3.7 13 17.4 NNE 19 32 10 17 1019.1 - 0.0
21/11:00am 35.1 29.4 2.6 13 16.8 N 22 32 12 17 1019.4 - 0.0
21/10:30am 34.9 29.1 2.4 13 16.7 NNE 22 30 12 16 1019.6 - 0.0
21/10:00am 34.6 29.0 3.2 14 16.3 N 22 28 12 15 1019.7 - 0.0
21/09:30am 33.1 27.0 3.0 15 15.5 N 24 30 13 16 1019.9 - 0.0
21/09:00am 30.8 25.3 2.1 16 14.3 NNE 20 24 11 13 1020.0 1019.8 0.0
21/08:30am 27.9 22.4 0.6 17 13.0 NNE 19 22 10 12 1020.0 - 0.0
21/08:00am 25.6 21.5 -0.5 18 12.0 NNE 11 13 6 7 1019.4 - 0.0
21/07:30am 24.3 20.7 0.6 21 11.0 NE 9 13 5 7 1019.2 - 0.0
21/07:00am 21.2 16.9 -2.0 21 10.0 NE 11 13 6 7 1018.7 - 0.0
21/06:30am 19.9 15.1 -2.4 22 9.4 NE 13 13 7 7 1018.1 - 0.0
21/06:00am 20.0 15.5 -0.1 26 8.9 ENE 13 13 7 7 1017.7 1017.5 0.0
21/05:30am 20.1 16.5 -2.3 22 9.5 NNE 7 9 4 5 1017.4 - 0.0
21/05:00am 20.6 17.0 -1.8 22 9.6 NNE 7 9 4 5 1017.1 - 0.0
21/04:30am 21.7 17.4 -1.6 21 10.1 NNE 11 15 6 8 1017.0 - 0.0
21/04:00am 21.5 17.8 -3.1 19 10.4 NNE 7 9 4 5 1016.8 - 0.0
21/03:30am 21.7 19.4 -2.2 20 10.3 CALM 0 0 0 0 1016.8 - 0.0
21/03:00am 22.7 18.8 -1.4 20 10.6 NNE 9 9 5 5 1017.0 1016.8 0.0
21/02:30am 22.6 18.6 -2.2 19 10.7 NNE 9 9 5 5 1017.2 - 0.0
21/02:00am 23.2 19.2 -2.4 18 11.1 NNE 9 11 5 6 1017.4 - 0.0
21/01:30am 23.6 19.6 -2.1 18 11.3 NE 9 11 5 6 1017.5 - 0.0
21/01:00am 23.5 19.1 -2.2 18 11.2 NE 11 11 6 6 1017.9 - 0.0
21/12:30am 24.3 20.3 -2.3 17 11.7 NNE 9 11 5 6 1018.1 - 0.0
21/12:00am 24.6 20.6 -2.0 17 11.7 NNE 9 11 5 6 1018.2 1018.0 0.0
 
Date/Time
EST
Temp
°C
App
Temp
°C
Dew
Point
Rel
Hum
%
Delta-T
°C
Wind Press
QNH
hPa
Press
MSL
hPa
Rain
since 9 am
mm
Dir
 
Spd
km/h
Gust
km/h
Spd
kts
Gust
kts
20/11:30pm 25.8 21.6 -1.1 17 12.2 NNE 11 11 6 6 1018.3 - 0.0
20/11:00pm 26.1 21.8 -1.7 16 12.5 NE 11 11 6 6 1018.4 - 0.0
20/10:30pm 28.7 24.4 1.3 17 13.3 ENE 13 15 7 8 1018.5 - 0.0
20/10:00pm 28.1 24.8 2.3 19 12.7 NNE 9 11 5 6 1018.4 - 0.0
20/09:30pm 27.7 24.2 -1.3 15 13.3 NNE 7 15 4 8 1018.1 - 0.0
20/09:00pm 29.4 26.3 0.1 15 14.0 E 6 7 3 4 1017.6 1017.4 0.0
20/08:30pm 31.2 27.2 0.6 14 14.9 E 11 13 6 7 1017.4 - 0.0
20/08:00pm 31.5 28.3 0.8 14 15.0 E 7 9 4 5 1017.1 - 0.0
20/07:30pm 32.8 29.2 0.8 13 15.8 E 9 11 5 6 1016.6 - 0.0
20/07:00pm 33.7 29.7 0.4 12 16.4 ENE 11 15 6 8 1016.2 - 0.0
20/06:30pm 35.1 29.9 0.2 11 17.3 ENE 17 24 9 13 1015.8 - 0.0
20/06:00pm 35.9 30.8 0.9 11 17.6 ENE 17 24 9 13 1015.6 1015.5 0.0
20/05:30pm 36.4 31.7 1.2 11 17.9 NE 15 20 8 11 1015.5 - 0.0
20/05:00pm 36.7 30.8 1.5 11 18.0 E 22 28 12 15 1015.5 - 0.0
20/04:30pm 36.5 32.0 0.0 10 18.2 SE 13 20 7 11 1015.6 - 0.0
20/04:00pm 36.7 32.1 1.5 11 18.0 ESE 15 26 8 14 1015.8 - 0.0

Other Formats:

Comma delimited format used in spreadsheet applications
http://www.bom.gov.au/fwo/IDQ60801/IDQ60801.95482.axf

JavaScript Object Notation format (JSON) in row-major order
http://www.bom.gov.au/fwo/IDQ60801/IDQ60801.95482.json